createdAt,value
2023-02-07T00:00:18.139Z,6.55
2023-02-07T00:05:19.702Z,6.05
2023-02-07T00:10:21.577Z,5.20
2023-02-07T00:15:23.246Z,7.30
2023-02-07T00:20:25.293Z,6.35
2023-02-07T00:25:27.433Z,6.20
2023-02-07T00:30:29.099Z,4.65
2023-02-07T00:35:30.754Z,4.25
2023-02-07T00:40:32.554Z,4.47
2023-02-07T00:45:34.172Z,4.95
2023-02-07T00:50:35.831Z,3.40
2023-02-07T00:55:37.713Z,4.03
2023-02-07T01:00:39.703Z,3.88
2023-02-07T01:05:41.911Z,4.25
2023-02-07T01:10:45.242Z,5.13
2023-02-07T01:15:48.820Z,3.40
2023-02-07T01:20:50.678Z,3.65
2023-02-07T01:25:52.255Z,3.20
2023-02-07T01:30:53.908Z,4.80
2023-02-07T01:35:55.547Z,3.47
2023-02-07T01:40:57.132Z,3.80
2023-02-07T01:45:58.806Z,3.63
2023-02-07T01:51:04.977Z,3.10
2023-02-07T01:56:09.301Z,3.60
2023-02-07T02:01:18.969Z,3.22
2023-02-07T02:06:23.444Z,3.75
2023-02-07T02:11:50.566Z,2.92
2023-02-07T02:16:57.997Z,3.65
2023-02-07T02:22:56.322Z,3.25
2023-02-07T02:28:20.087Z,3.95
2023-02-07T02:33:43.458Z,3.50
2023-02-07T02:39:07.809Z,3.60
2023-02-07T02:44:18.558Z,3.40
2023-02-07T02:49:21.936Z,2.72
2023-02-07T02:54:37.134Z,3.67
2023-02-07T02:59:41.286Z,4.00
2023-02-07T03:05:07.388Z,5.63
2023-02-07T03:10:50.721Z,3.05
2023-02-07T03:16:18.099Z,4.18
2023-02-07T03:22:05.781Z,3.20
2023-02-07T03:27:11.317Z,3.00
2023-02-07T03:32:15.162Z,3.80
2023-02-07T03:37:25.140Z,3.58
2023-02-07T03:42:33.510Z,4.55
2023-02-07T03:47:35.106Z,4.35
2023-02-07T03:52:36.752Z,4.07
2023-02-07T03:57:38.694Z,3.78
2023-02-07T04:02:40.895Z,4.13
2023-02-07T04:07:42.774Z,4.78
2023-02-07T04:12:44.437Z,4.22
2023-02-07T04:17:46.014Z,5.18
2023-02-07T04:22:47.633Z,6.25
2023-02-07T04:27:49.230Z,4.75
2023-02-07T04:32:50.864Z,5.45
2023-02-07T04:37:52.458Z,3.70
2023-02-07T04:42:54.061Z,4.32
2023-02-07T04:47:55.630Z,5.25
2023-02-07T04:52:57.273Z,11.35
2023-02-07T04:57:58.877Z,5.82
2023-02-07T05:03:01.177Z,6.63
2023-02-07T05:08:02.791Z,3.88
2023-02-07T05:13:05.228Z,6.47
2023-02-07T05:18:07.116Z,6.07
2023-02-07T05:23:08.817Z,5.38
2023-02-07T05:28:10.719Z,4.05
2023-02-07T05:33:12.421Z,4.25
2023-02-07T05:38:16.391Z,4.68
2023-02-07T05:43:18.066Z,54.92
2023-02-07T05:48:19.668Z,7.55
2023-02-07T05:53:21.244Z,6.78
2023-02-07T05:58:22.825Z,7.78
2023-02-07T06:03:24.447Z,5.95
2023-02-07T06:08:26.049Z,7.95
2023-02-07T06:13:27.645Z,7.53
2023-02-07T06:18:29.228Z,7.43
2023-02-07T06:23:30.826Z,6.35
2023-02-07T06:28:32.423Z,7.07
2023-02-07T06:33:34.046Z,7.78
2023-02-07T06:38:35.619Z,7.57
2023-02-07T06:43:38.857Z,8.30
2023-02-07T06:48:40.767Z,7.57
2023-02-07T06:53:42.430Z,7.65
2023-02-07T06:58:44.019Z,7.80
2023-02-07T07:03:47.081Z,8.30
2023-02-07T07:08:49.910Z,9.60
2023-02-07T07:13:51.547Z,9.80
2023-02-07T07:18:53.154Z,13.18
2023-02-07T07:23:55.588Z,12.60
2023-02-07T07:29:00.168Z,11.50
2023-02-07T07:34:01.779Z,13.50
2023-02-07T07:39:04.170Z,10.63
2023-02-07T07:44:06.003Z,13.73
2023-02-07T07:49:07.598Z,17.33
2023-02-07T07:54:09.206Z,12.50
2023-02-07T07:59:20.073Z,13.65
2023-02-07T08:04:24.931Z,12.55
2023-02-07T08:09:26.553Z,12.68
2023-02-07T08:14:28.146Z,14.77
2023-02-07T08:19:29.761Z,12.93
2023-02-07T08:24:31.405Z,15.32
2023-02-07T08:29:33.021Z,15.98
2023-02-07T08:34:37.697Z,13.80
2023-02-07T08:39:39.350Z,17.77
2023-02-07T08:44:40.956Z,17.70
2023-02-07T08:49:42.765Z,18.27
2023-02-07T08:54:44.349Z,17.65
2023-02-07T08:59:45.960Z,18.40
2023-02-07T09:04:47.749Z,18.63
2023-02-07T09:09:49.351Z,19.27
2023-02-07T09:14:50.906Z,16.85
2023-02-07T09:19:52.497Z,15.00
2023-02-07T09:24:54.107Z,18.58
2023-02-07T09:29:55.739Z,14.63
2023-02-07T09:34:58.442Z,17.15
2023-02-07T09:40:00.131Z,17.23
2023-02-07T09:45:12.252Z,14.32
2023-02-07T09:50:20.821Z,15.13
2023-02-07T09:55:26.929Z,14.95
2023-02-07T10:00:31.668Z,14.85
2023-02-07T10:05:42.138Z,14.57
2023-02-07T10:11:25.024Z,15.13
2023-02-07T10:17:01.528Z,15.48
2023-02-07T10:22:21.434Z,15.45
2023-02-07T10:27:32.025Z,15.30
2023-02-07T10:32:38.261Z,12.85
2023-02-07T10:37:40.027Z,13.88
2023-02-07T10:42:43.926Z,16.63
2023-02-07T10:47:45.729Z,13.85
2023-02-07T10:52:52.825Z,14.13
2023-02-07T10:58:01.459Z,13.15
2023-02-07T11:03:14.249Z,13.23
2023-02-07T11:08:15.811Z,14.10
2023-02-07T11:13:20.398Z,14.32
2023-02-07T11:18:45.600Z,15.32
2023-02-07T11:23:49.529Z,14.25
2023-02-07T11:28:54.070Z,12.80
2023-02-07T11:34:11.473Z,12.02
2023-02-07T11:39:18.332Z,12.43
2023-02-07T11:44:23.788Z,12.10
2023-02-07T11:49:43.085Z,10.80
2023-02-07T11:54:51.975Z,13.50
2023-02-07T12:00:06.723Z,13.38
2023-02-07T12:05:18.172Z,9.93
2023-02-07T12:10:34.789Z,9.55
2023-02-07T12:16:00.490Z,11.35
2023-02-07T12:21:14.335Z,9.45
2023-02-07T12:26:33.545Z,9.55
2023-02-07T12:31:38.024Z,11.70
2023-02-07T12:36:46.252Z,13.27
2023-02-07T12:41:56.004Z,9.18
2023-02-07T12:47:22.033Z,12.48
2023-02-07T12:52:45.478Z,12.95
2023-02-07T12:58:08.859Z,10.68
2023-02-07T13:03:32.177Z,11.60
2023-02-07T13:08:48.351Z,10.93
2023-02-07T13:13:55.920Z,12.15
2023-02-07T13:19:11.430Z,9.95
2023-02-07T13:24:17.030Z,9.77
2023-02-07T13:29:20.381Z,8.88
2023-02-07T13:34:26.554Z,8.98
2023-02-07T13:40:20.041Z,9.10
2023-02-07T13:45:48.339Z,9.55
2023-02-07T13:51:04.896Z,9.15
2023-02-07T13:56:33.870Z,9.73
2023-02-07T14:01:36.945Z,9.60
2023-02-07T14:06:55.124Z,9.60
2023-02-07T14:12:20.155Z,10.02
2023-02-07T14:17:27.770Z,8.95
2023-02-07T14:22:52.085Z,8.95
2023-02-07T14:27:53.654Z,8.50
2023-02-07T14:33:15.312Z,8.20
2023-02-07T14:38:27.559Z,8.07
2023-02-07T14:44:08.472Z,12.85
2023-02-07T14:49:35.502Z,11.43
2023-02-07T14:54:46.196Z,9.20
2023-02-07T15:00:12.519Z,10.38
2023-02-07T15:05:14.098Z,11.23
2023-02-07T15:10:27.679Z,9.13
2023-02-07T15:15:48.288Z,10.32
2023-02-07T15:20:58.157Z,11.73
2023-02-07T15:26:06.067Z,9.23
2023-02-07T15:31:16.399Z,9.90
2023-02-07T15:36:46.023Z,13.10
2023-02-07T15:41:49.736Z,11.10
2023-02-07T15:46:58.943Z,10.18
2023-02-07T15:52:26.718Z,10.77
2023-02-07T15:57:40.577Z,12.10
2023-02-07T16:02:48.213Z,9.82
2023-02-07T16:07:50.258Z,8.55
2023-02-07T16:12:59.503Z,11.90
2023-02-07T16:18:03.066Z,11.43
2023-02-07T16:23:10.011Z,9.75
2023-02-07T16:28:15.878Z,11.88
2023-02-07T16:33:17.547Z,12.07
2023-02-07T16:38:19.144Z,10.27
2023-02-07T16:43:37.393Z,10.48
2023-02-07T16:48:39.061Z,11.40
2023-02-07T16:53:40.643Z,12.45
2023-02-07T16:58:42.349Z,13.20
2023-02-07T17:03:44.280Z,12.48
2023-02-07T17:08:46.654Z,12.10
2023-02-07T17:13:48.289Z,16.50
2023-02-07T17:18:50.052Z,15.13
2023-02-07T17:23:51.918Z,15.95
2023-02-07T17:28:55.152Z,12.77
2023-02-07T17:33:56.750Z,12.55
2023-02-07T17:38:59.359Z,15.50
2023-02-07T17:44:01.146Z,17.60
2023-02-07T17:49:03.263Z,20.35
2023-02-07T17:54:04.919Z,16.13
2023-02-07T17:59:07.979Z,19.10
2023-02-07T18:04:09.617Z,18.13
2023-02-07T18:09:18.809Z,19.55
2023-02-07T18:14:20.523Z,21.65
2023-02-07T18:19:22.568Z,18.20
2023-02-07T18:24:24.093Z,13.85
2023-02-07T18:29:25.696Z,32.00
2023-02-07T18:34:27.323Z,19.33
2023-02-07T18:39:28.902Z,21.40
2023-02-07T18:44:30.513Z,19.40
2023-02-07T18:49:34.071Z,19.23
2023-02-07T18:54:36.462Z,38.40
2023-02-07T18:59:38.772Z,18.90
2023-02-07T19:04:41.708Z,13.63
2023-02-07T19:09:43.440Z,14.05
2023-02-07T19:14:45.056Z,16.38
2023-02-07T19:19:46.665Z,16.85
2023-02-07T19:24:48.300Z,20.15
2023-02-07T19:29:49.996Z,15.93
2023-02-07T19:34:51.646Z,20.27
2023-02-07T19:39:56.261Z,16.25
2023-02-07T19:44:57.904Z,14.65
2023-02-07T19:49:59.513Z,15.80
2023-02-07T19:55:01.125Z,14.43
2023-02-07T20:00:05.308Z,19.70
2023-02-07T20:05:08.059Z,16.08
2023-02-07T20:10:10.784Z,15.55
2023-02-07T20:15:12.597Z,12.40
2023-02-07T20:20:15.267Z,19.83
2023-02-07T20:25:17.060Z,15.50
2023-02-07T20:30:18.795Z,17.73
2023-02-07T20:35:20.564Z,12.45
2023-02-07T20:40:22.602Z,15.35
2023-02-07T20:45:24.313Z,15.70
2023-02-07T20:50:25.926Z,16.50
2023-02-07T20:55:27.615Z,16.63
2023-02-07T21:00:29.240Z,16.85
2023-02-07T21:05:30.842Z,16.20
2023-02-07T21:10:32.413Z,18.08
2023-02-07T21:15:34.017Z,17.90
2023-02-07T21:20:38.220Z,17.70
2023-02-07T21:25:40.097Z,23.60
2023-02-07T21:30:42.232Z,26.08
2023-02-07T21:35:44.171Z,18.35
2023-02-07T21:40:45.747Z,22.92
2023-02-07T21:45:47.458Z,16.48
2023-02-07T21:50:49.147Z,18.92
2023-02-07T21:55:50.799Z,16.58
2023-02-07T22:00:52.936Z,14.13
2023-02-07T22:05:54.590Z,17.02
2023-02-07T22:10:56.229Z,15.32
2023-02-07T22:15:58.230Z,17.67
2023-02-07T22:21:04.588Z,15.25
2023-02-07T22:26:06.944Z,20.33
2023-02-07T22:31:29.678Z,22.25
2023-02-07T22:36:33.708Z,19.02
2023-02-07T22:41:36.225Z,18.20
2023-02-07T22:46:38.382Z,14.98
2023-02-07T22:51:39.980Z,18.20
2023-02-07T22:56:41.586Z,17.85
2023-02-07T23:01:44.270Z,22.13
2023-02-07T23:06:46.575Z,23.85
2023-02-07T23:11:48.713Z,19.27
2023-02-07T23:16:50.318Z,20.10
2023-02-07T23:21:52.097Z,19.50
2023-02-07T23:26:53.934Z,18.88
2023-02-07T23:31:55.593Z,21.58
2023-02-07T23:36:57.239Z,17.88
2023-02-07T23:41:58.947Z,19.42
2023-02-07T23:47:00.554Z,16.10
2023-02-07T23:52:02.272Z,16.55
2023-02-07T23:57:04.622Z,15.75
